Aérodrome :
LOGIN :

S'inscrire | Disclaimer

   EN    FR    IT 

 










Légende :    VFR   VFR Marginal   IFR   IFR Intensif   IFR Très Intensif
Visi : 
Plafond : 
>= 8 km
>= 3000ft
5 à 8 km
1000 à 3000 ft
1500m à 5 km
500 à 1000 ft
800 à 1500m
200 à 500 ft
< 800m
< 200 ft
Symboles :   Orages  Brouillard  Fortes neiges  Fortes précipitations  Vent > 20 kt
SIGMETs :   Divers  Orages  Givrage  Turbulence  Onde Orograph.  Cendres Volcan.






- Altitude de l'aérodrome : 124 ft
- Code IATA : RNS


LFRN - Rennes

DERNIER METAR :
  • 231400Z AUTO 34015KT 9999 BKN025 07/03 Q0997 NOSIG

METARs EXPIRÉS :
  • 231330Z AUTO 33014KT 9999 BKN022 OVC031 07/03 Q0997 NOSIG
  • 231300Z AUTO 34016KT 320V020 9999 BKN022 OVC028 07/03 Q0997 NOSIG
  • 231230Z AUTO 33016KT 9999 BKN020 OVC027 06/03 Q0997 NOSIG
  • 231200Z AUTO 34015G26KT 9999 BKN017 OVC024 06/03 Q0996 BECMG 32010KT
  • 231130Z AUTO 34017KT 9999 BKN015 OVC022 06/03 Q0995 NOSIG

TAF TAF LFRN
Valide du 23 à 12h jusqu'au 24 à 12h UTC


231100Z 2312/2412 34015G25KT 9999 BKN012
BECMG 2312/2314 32010KT BKN020
BECMG 2317/2319 VRB03KT
PROB40
TEMPO 2322/2406 3000 BR
BECMG 2404/2406 19010KT
TEMPO 2405/2412 4000 SHRAGS BKN010CB
ATIS : +33 2 99 67 72 50



MET'MAP, la Météo Aéronautique d'un coup d'oeil ! - Copyright ORBIFLY Décembre 2007 - Disclaimer

ORBIFLY MET'MAP TEAM :

Programmation & Développement : Alexandra Zaïnal
Sur une idée originale de : Baudouin d'Aumeries
Assistance à la programmation : Marc-Olivier Méhu
Soutien technique & logistique : Manuel Goepfert

Contact : metmap@orbifly.com




SOURCES & CREDITS :

   NOAA